sensor_id;sensor_type;location;lat;lon;timestamp;P1;durP1;ratioP1;P2;durP2;ratioP2
79460;SDS011;68929;42.666;23.324;2023-08-07T00:00:21;1.80;;;1.70;;
79460;SDS011;68929;42.666;23.324;2023-08-07T00:02:49;2.00;;;1.80;;
79460;SDS011;68929;42.666;23.324;2023-08-07T00:05:15;2.40;;;2.20;;
79460;SDS011;68929;42.666;23.324;2023-08-07T00:07:42;2.10;;;1.90;;
79460;SDS011;68929;42.666;23.324;2023-08-07T00:10:07;2.40;;;2.00;;
79460;SDS011;68929;42.666;23.324;2023-08-07T00:12:33;3.35;;;2.10;;
79460;SDS011;68929;42.666;23.324;2023-08-07T00:14:59;2.72;;;2.50;;
79460;SDS011;68929;42.666;23.324;2023-08-07T00:17:24;2.67;;;2.17;;
79460;SDS011;68929;42.666;23.324;2023-08-07T00:19:50;2.38;;;2.20;;
79460;SDS011;68929;42.666;23.324;2023-08-07T00:22:15;2.35;;;2.10;;
79460;SDS011;68929;42.666;23.324;2023-08-07T00:24:40;2.72;;;2.30;;
79460;SDS011;68929;42.666;23.324;2023-08-07T00:27:06;2.75;;;2.55;;
79460;SDS011;68929;42.666;23.324;2023-08-07T00:29:34;1.92;;;1.83;;
79460;SDS011;68929;42.666;23.324;2023-08-07T00:32:00;2.13;;;2.00;;
79460;SDS011;68929;42.666;23.324;2023-08-07T00:34:25;2.33;;;2.20;;
79460;SDS011;68929;42.666;23.324;2023-08-07T00:36:51;2.90;;;2.60;;
79460;SDS011;68929;42.666;23.324;2023-08-07T00:39:16;2.95;;;2.65;;
79460;SDS011;68929;42.666;23.324;2023-08-07T00:41:41;2.67;;;2.47;;
79460;SDS011;68929;42.666;23.324;2023-08-07T00:44:07;3.00;;;2.80;;
79460;SDS011;68929;42.666;23.324;2023-08-07T00:46:32;3.60;;;3.30;;
79460;SDS011;68929;42.666;23.324;2023-08-07T00:48:58;2.85;;;2.65;;
79460;SDS011;68929;42.666;23.324;2023-08-07T00:51:23;5.38;;;4.90;;
79460;SDS011;68929;42.666;23.324;2023-08-07T00:53:49;5.70;;;4.78;;
79460;SDS011;68929;42.666;23.324;2023-08-07T00:56:15;3.22;;;3.03;;
79460;SDS011;68929;42.666;23.324;2023-08-07T00:58:41;3.15;;;2.95;;
79460;SDS011;68929;42.666;23.324;2023-08-07T01:01:07;3.03;;;2.83;;
79460;SDS011;68929;42.666;23.324;2023-08-07T01:03:32;3.20;;;2.90;;
79460;SDS011;68929;42.666;23.324;2023-08-07T01:05:58;3.30;;;3.00;;
79460;SDS011;68929;42.666;23.324;2023-08-07T01:08:26;2.80;;;2.60;;
79460;SDS011;68929;42.666;23.324;2023-08-07T01:16:18;2.70;;;2.50;;
79460;SDS011;68929;42.666;23.324;2023-08-07T01:18:51;2.58;;;2.38;;
79460;SDS011;68929;42.666;23.324;2023-08-07T01:21:18;3.13;;;2.45;;
79460;SDS011;68929;42.666;23.324;2023-08-07T01:23:47;2.60;;;2.40;;
79460;SDS011;68929;42.666;23.324;2023-08-07T01:26:13;2.60;;;2.40;;
79460;SDS011;68929;42.666;23.324;2023-08-07T01:28:42;2.70;;;2.50;;
79460;SDS011;68929;42.666;23.324;2023-08-07T01:31:27;3.08;;;2.85;;
79460;SDS011;68929;42.666;23.324;2023-08-07T01:34:04;5.63;;;3.50;;
79460;SDS011;68929;42.666;23.324;2023-08-07T01:36:31;2.80;;;2.60;;
79460;SDS011;68929;42.666;23.324;2023-08-07T01:38:59;4.30;;;3.90;;
79460;SDS011;68929;42.666;23.324;2023-08-07T01:41:38;4.45;;;2.85;;
79460;SDS011;68929;42.666;23.324;2023-08-07T01:44:05;4.60;;;4.20;;
79460;SDS011;68929;42.666;23.324;2023-08-07T01:46:31;4.35;;;3.72;;
79460;SDS011;68929;42.666;23.324;2023-08-07T01:48:56;4.75;;;4.32;;
79460;SDS011;68929;42.666;23.324;2023-08-07T01:51:22;4.13;;;3.42;;
79460;SDS011;68929;42.666;23.324;2023-08-07T01:53:47;4.45;;;4.05;;
79460;SDS011;68929;42.666;23.324;2023-08-07T01:56:12;3.35;;;3.13;;
79460;SDS011;68929;42.666;23.324;2023-08-07T01:58:38;3.50;;;3.20;;
79460;SDS011;68929;42.666;23.324;2023-08-07T02:01:03;3.00;;;2.80;;
79460;SDS011;68929;42.666;23.324;2023-08-07T02:03:29;3.40;;;3.20;;
79460;SDS011;68929;42.666;23.324;2023-08-07T02:05:54;5.18;;;3.90;;
79460;SDS011;68929;42.666;23.324;2023-08-07T02:08:19;3.88;;;3.58;;
79460;SDS011;68929;42.666;23.324;2023-08-07T02:10:45;4.55;;;4.15;;
79460;SDS011;68929;42.666;23.324;2023-08-07T02:13:10;3.45;;;3.25;;
79460;SDS011;68929;42.666;23.324;2023-08-07T02:15:36;4.10;;;3.80;;
79460;SDS011;68929;42.666;23.324;2023-08-07T02:18:01;3.75;;;3.35;;
79460;SDS011;68929;42.666;23.324;2023-08-07T02:20:26;4.20;;;2.80;;
79460;SDS011;68929;42.666;23.324;2023-08-07T02:22:52;2.90;;;2.70;;
79460;SDS011;68929;42.666;23.324;2023-08-07T02:25:17;3.78;;;3.47;;
79460;SDS011;68929;42.666;23.324;2023-08-07T02:27:43;3.35;;;3.05;;
79460;SDS011;68929;42.666;23.324;2023-08-07T02:30:08;3.33;;;3.13;;
79460;SDS011;68929;42.666;23.324;2023-08-07T02:32:34;3.58;;;2.95;;
79460;SDS011;68929;42.666;23.324;2023-08-07T02:34:59;3.40;;;3.20;;
79460;SDS011;68929;42.666;23.324;2023-08-07T02:37:25;3.53;;;3.28;;
79460;SDS011;68929;42.666;23.324;2023-08-07T02:39:50;3.13;;;2.88;;
79460;SDS011;68929;42.666;23.324;2023-08-07T02:42:16;3.97;;;3.67;;
79460;SDS011;68929;42.666;23.324;2023-08-07T02:44:41;4.30;;;4.00;;
79460;SDS011;68929;42.666;23.324;2023-08-07T02:47:07;4.30;;;3.90;;
79460;SDS011;68929;42.666;23.324;2023-08-07T02:49:32;3.75;;;3.45;;
79460;SDS011;68929;42.666;23.324;2023-08-07T02:51:57;5.43;;;3.38;;
79460;SDS011;68929;42.666;23.324;2023-08-07T02:54:23;3.75;;;3.45;;
79460;SDS011;68929;42.666;23.324;2023-08-07T02:56:48;4.55;;;4.15;;
79460;SDS011;68929;42.666;23.324;2023-08-07T02:59:14;5.20;;;3.60;;
79460;SDS011;68929;42.666;23.324;2023-08-07T03:01:40;4.32;;;4.03;;
79460;SDS011;68929;42.666;23.324;2023-08-07T03:04:05;4.63;;;4.22;;
79460;SDS011;68929;42.666;23.324;2023-08-07T03:06:31;6.40;;;4.00;;
79460;SDS011;68929;42.666;23.324;2023-08-07T03:08:57;4.95;;;4.35;;
79460;SDS011;68929;42.666;23.324;2023-08-07T03:11:22;5.20;;;4.80;;
79460;SDS011;68929;42.666;23.324;2023-08-07T03:13:48;6.53;;;4.43;;
79460;SDS011;68929;42.666;23.324;2023-08-07T03:16:14;5.28;;;4.82;;
79460;SDS011;68929;42.666;23.324;2023-08-07T03:18:39;4.88;;;4.47;;
79460;SDS011;68929;42.666;23.324;2023-08-07T03:21:05;5.50;;;5.07;;
79460;SDS011;68929;42.666;23.324;2023-08-07T03:23:32;4.65;;;4.03;;
79460;SDS011;68929;42.666;23.324;2023-08-07T03:28:30;5.68;;;5.05;;
79460;SDS011;68929;42.666;23.324;2023-08-07T03:31:00;5.53;;;5.13;;
79460;SDS011;68929;42.666;23.324;2023-08-07T03:33:28;5.32;;;4.93;;
79460;SDS011;68929;42.666;23.324;2023-08-07T03:35:53;6.00;;;5.22;;
79460;SDS011;68929;42.666;23.324;2023-08-07T03:38:19;6.18;;;5.68;;
79460;SDS011;68929;42.666;23.324;2023-08-07T03:40:45;5.43;;;4.97;;
79460;SDS011;68929;42.666;23.324;2023-08-07T03:43:11;5.80;;;5.07;;
79460;SDS011;68929;42.666;23.324;2023-08-07T03:45:36;5.93;;;5.15;;
79460;SDS011;68929;42.666;23.324;2023-08-07T03:48:02;6.05;;;5.55;;
79460;SDS011;68929;42.666;23.324;2023-08-07T03:50:27;5.53;;;4.97;;
79460;SDS011;68929;42.666;23.324;2023-08-07T03:52:55;4.88;;;4.40;;
79460;SDS011;68929;42.666;23.324;2023-08-07T03:55:20;4.95;;;4.50;;
79460;SDS011;68929;42.666;23.324;2023-08-07T03:57:45;4.60;;;4.20;;
79460;SDS011;68929;42.666;23.324;2023-08-07T04:00:11;5.53;;;5.03;;
79460;SDS011;68929;42.666;23.324;2023-08-07T04:02:37;6.05;;;4.90;;
79460;SDS011;68929;42.666;23.324;2023-08-07T04:05:03;4.25;;;3.95;;
79460;SDS011;68929;42.666;23.324;2023-08-07T04:07:28;4.88;;;4.47;;
79460;SDS011;68929;42.666;23.324;2023-08-07T04:09:54;4.97;;;4.25;;
79460;SDS011;68929;42.666;23.324;2023-08-07T04:12:19;5.13;;;4.50;;
79460;SDS011;68929;42.666;23.324;2023-08-07T04:14:45;4.25;;;3.83;;
79460;SDS011;68929;42.666;23.324;2023-08-07T04:17:10;4.85;;;4.45;;
79460;SDS011;68929;42.666;23.324;2023-08-07T04:19:36;5.00;;;4.10;;
79460;SDS011;68929;42.666;23.324;2023-08-07T04:22:01;4.32;;;3.92;;
79460;SDS011;68929;42.666;23.324;2023-08-07T04:24:27;5.50;;;4.88;;
79460;SDS011;68929;42.666;23.324;2023-08-07T04:26:52;8.00;;;4.70;;
79460;SDS011;68929;42.666;23.324;2023-08-07T04:29:18;4.68;;;4.28;;
79460;SDS011;68929;42.666;23.324;2023-08-07T04:31:43;5.05;;;4.20;;
79460;SDS011;68929;42.666;23.324;2023-08-07T04:34:09;4.88;;;4.22;;
79460;SDS011;68929;42.666;23.324;2023-08-07T04:36:34;4.60;;;4.20;;
79460;SDS011;68929;42.666;23.324;2023-08-07T04:39:00;5.13;;;4.53;;
79460;SDS011;68929;42.666;23.324;2023-08-07T04:41:25;4.88;;;4.47;;
79460;SDS011;68929;42.666;23.324;2023-08-07T04:43:50;5.10;;;4.60;;
79460;SDS011;68929;42.666;23.324;2023-08-07T04:46:16;5.55;;;3.92;;
79460;SDS011;68929;42.666;23.324;2023-08-07T04:48:41;4.57;;;4.18;;
79460;SDS011;68929;42.666;23.324;2023-08-07T04:51:07;4.97;;;4.47;;
79460;SDS011;68929;42.666;23.324;2023-08-07T04:53:32;4.40;;;4.10;;
79460;SDS011;68929;42.666;23.324;2023-08-07T04:55:59;4.28;;;3.97;;
79460;SDS011;68929;42.666;23.324;2023-08-07T04:58:24;3.90;;;3.60;;
79460;SDS011;68929;42.666;23.324;2023-08-07T05:00:54;5.60;;;4.10;;
79460;SDS011;68929;42.666;23.324;2023-08-07T05:03:20;3.53;;;3.33;;
79460;SDS011;68929;42.666;23.324;2023-08-07T05:05:46;4.63;;;3.88;;
79460;SDS011;68929;42.666;23.324;2023-08-07T05:08:11;3.55;;;3.25;;
79460;SDS011;68929;42.666;23.324;2023-08-07T05:10:36;4.13;;;3.83;;
79460;SDS011;68929;42.666;23.324;2023-08-07T05:13:02;5.40;;;3.88;;
79460;SDS011;68929;42.666;23.324;2023-08-07T05:15:27;6.03;;;4.90;;
79460;SDS011;68929;42.666;23.324;2023-08-07T05:17:59;4.75;;;4.30;;
79460;SDS011;68929;42.666;23.324;2023-08-07T05:20:25;5.97;;;4.63;;
79460;SDS011;68929;42.666;23.324;2023-08-07T05:22:54;5.00;;;4.60;;
79460;SDS011;68929;42.666;23.324;2023-08-07T05:25:29;4.50;;;4.20;;
79460;SDS011;68929;42.666;23.324;2023-08-07T05:27:54;4.95;;;4.55;;
79460;SDS011;68929;42.666;23.324;2023-08-07T05:30:19;7.00;;;4.82;;
79460;SDS011;68929;42.666;23.324;2023-08-07T05:32:45;5.03;;;3.60;;
79460;SDS011;68929;42.666;23.324;2023-08-07T05:35:10;6.05;;;4.20;;
79460;SDS011;68929;42.666;23.324;2023-08-07T05:37:36;4.25;;;3.88;;
79460;SDS011;68929;42.666;23.324;2023-08-07T05:40:01;6.38;;;4.40;;
79460;SDS011;68929;42.666;23.324;2023-08-07T05:42:27;4.63;;;4.30;;
79460;SDS011;68929;42.666;23.324;2023-08-07T05:44:53;7.53;;;3.92;;
79460;SDS011;68929;42.666;23.324;2023-08-07T05:47:18;7.43;;;4.20;;
79460;SDS011;68929;42.666;23.324;2023-08-07T05:49:44;6.40;;;4.30;;
79460;SDS011;68929;42.666;23.324;2023-08-07T05:52:09;5.00;;;3.80;;
79460;SDS011;68929;42.666;23.324;2023-08-07T05:54:34;3.78;;;3.33;;
79460;SDS011;68929;42.666;23.324;2023-08-07T05:57:00;4.40;;;4.00;;
79460;SDS011;68929;42.666;23.324;2023-08-07T05:59:25;5.63;;;3.90;;
79460;SDS011;68929;42.666;23.324;2023-08-07T06:01:51;3.95;;;3.65;;
79460;SDS011;68929;42.666;23.324;2023-08-07T06:04:19;3.50;;;3.08;;
79460;SDS011;68929;42.666;23.324;2023-08-07T06:07:05;5.07;;;3.72;;
79460;SDS011;68929;42.666;23.324;2023-08-07T06:09:31;4.13;;;3.72;;
79460;SDS011;68929;42.666;23.324;2023-08-07T06:11:56;4.10;;;3.80;;
79460;SDS011;68929;42.666;23.324;2023-08-07T06:14:21;3.88;;;3.30;;
79460;SDS011;68929;42.666;23.324;2023-08-07T06:16:47;5.45;;;3.85;;
79460;SDS011;68929;42.666;23.324;2023-08-07T06:19:14;6.88;;;4.30;;
79460;SDS011;68929;42.666;23.324;2023-08-07T06:21:40;4.28;;;3.88;;
79460;SDS011;68929;42.666;23.324;2023-08-07T06:24:06;5.78;;;4.25;;
79460;SDS011;68929;42.666;23.324;2023-08-07T06:26:31;4.20;;;3.80;;
79460;SDS011;68929;42.666;23.324;2023-08-07T06:28:57;3.40;;;3.13;;
79460;SDS011;68929;42.666;23.324;2023-08-07T06:31:22;4.10;;;3.70;;
79460;SDS011;68929;42.666;23.324;2023-08-07T06:33:49;3.60;;;3.28;;
79460;SDS011;68929;42.666;23.324;2023-08-07T06:36:14;5.72;;;2.42;;
79460;SDS011;68929;42.666;23.324;2023-08-07T06:38:40;3.42;;;3.13;;
79460;SDS011;68929;42.666;23.324;2023-08-07T06:41:05;3.40;;;3.10;;
79460;SDS011;68929;42.666;23.324;2023-08-07T06:43:30;3.25;;;2.90;;
79460;SDS011;68929;42.666;23.324;2023-08-07T06:45:56;2.80;;;2.38;;
79460;SDS011;68929;42.666;23.324;2023-08-07T06:48:24;2.88;;;1.92;;
79460;SDS011;68929;42.666;23.324;2023-08-07T06:50:49;2.25;;;2.10;;
79460;SDS011;68929;42.666;23.324;2023-08-07T06:53:16;2.65;;;2.45;;
79460;SDS011;68929;42.666;23.324;2023-08-07T06:55:41;3.20;;;2.70;;
79460;SDS011;68929;42.666;23.324;2023-08-07T06:58:07;1.80;;;1.70;;
79460;SDS011;68929;42.666;23.324;2023-08-07T07:00:33;1.92;;;1.50;;
79460;SDS011;68929;42.666;23.324;2023-08-07T07:03:00;2.70;;;1.50;;
79460;SDS011;68929;42.666;23.324;2023-08-07T07:05:26;2.00;;;1.80;;
79460;SDS011;68929;42.666;23.324;2023-08-07T07:07:57;1.45;;;1.23;;
79460;SDS011;68929;42.666;23.324;2023-08-07T07:10:31;2.10;;;1.63;;
79460;SDS011;68929;42.666;23.324;2023-08-07T07:12:57;1.80;;;1.55;;
79460;SDS011;68929;42.666;23.324;2023-08-07T07:15:22;3.95;;;1.98;;
79460;SDS011;68929;42.666;23.324;2023-08-07T07:17:48;2.20;;;2.00;;
79460;SDS011;68929;42.666;23.324;2023-08-07T07:20:13;1.90;;;1.80;;
79460;SDS011;68929;42.666;23.324;2023-08-07T07:22:38;2.00;;;1.77;;
79460;SDS011;68929;42.666;23.324;2023-08-07T07:25:04;3.10;;;1.83;;
79460;SDS011;68929;42.666;23.324;2023-08-07T07:27:30;2.03;;;1.85;;
79460;SDS011;68929;42.666;23.324;2023-08-07T07:29:55;2.17;;;2.08;;
79460;SDS011;68929;42.666;23.324;2023-08-07T07:32:21;2.70;;;1.88;;
79460;SDS011;68929;42.666;23.324;2023-08-07T07:34:46;2.17;;;1.80;;
79460;SDS011;68929;42.666;23.324;2023-08-07T07:37:12;2.45;;;1.50;;
79460;SDS011;68929;42.666;23.324;2023-08-07T07:39:39;1.80;;;1.70;;
79460;SDS011;68929;42.666;23.324;2023-08-07T07:42:07;2.95;;;2.05;;
79460;SDS011;68929;42.666;23.324;2023-08-07T07:44:32;2.05;;;1.75;;
79460;SDS011;68929;42.666;23.324;2023-08-07T07:47:00;1.50;;;1.40;;
79460;SDS011;68929;42.666;23.324;2023-08-07T07:49:25;2.00;;;1.80;;
79460;SDS011;68929;42.666;23.324;2023-08-07T07:51:51;1.75;;;1.40;;
79460;SDS011;68929;42.666;23.324;2023-08-07T07:54:16;1.70;;;1.60;;
79460;SDS011;68929;42.666;23.324;2023-08-07T07:56:45;2.10;;;1.90;;
79460;SDS011;68929;42.666;23.324;2023-08-07T07:59:11;2.60;;;1.90;;
79460;SDS011;68929;42.666;23.324;2023-08-07T08:01:40;2.40;;;1.85;;
79460;SDS011;68929;42.666;23.324;2023-08-07T08:04:22;1.83;;;1.52;;
79460;SDS011;68929;42.666;23.324;2023-08-07T08:06:47;2.08;;;1.70;;
79460;SDS011;68929;42.666;23.324;2023-08-07T08:09:13;2.45;;;1.65;;
79460;SDS011;68929;42.666;23.324;2023-08-07T08:11:39;2.10;;;1.90;;
79460;SDS011;68929;42.666;23.324;2023-08-07T08:14:04;2.05;;;1.75;;
79460;SDS011;68929;42.666;23.324;2023-08-07T08:16:30;5.45;;;2.05;;
79460;SDS011;68929;42.666;23.324;2023-08-07T08:18:55;5.22;;;1.75;;
79460;SDS011;68929;42.666;23.324;2023-08-07T08:21:26;2.10;;;1.75;;
79460;SDS011;68929;42.666;23.324;2023-08-07T08:23:51;4.35;;;2.10;;
79460;SDS011;68929;42.666;23.324;2023-08-07T08:26:17;1.50;;;1.40;;
79460;SDS011;68929;42.666;23.324;2023-08-07T08:28:42;2.08;;;1.80;;
79460;SDS011;68929;42.666;23.324;2023-08-07T08:31:07;1.88;;;1.77;;
79460;SDS011;68929;42.666;23.324;2023-08-07T08:33:41;3.33;;;1.75;;
79460;SDS011;68929;42.666;23.324;2023-08-07T08:36:07;2.28;;;1.80;;
79460;SDS011;68929;42.666;23.324;2023-08-07T08:38:32;1.88;;;1.50;;
79460;SDS011;68929;42.666;23.324;2023-08-07T08:41:02;2.47;;;2.28;;
79460;SDS011;68929;42.666;23.324;2023-08-07T08:43:32;1.70;;;1.60;;
79460;SDS011;68929;42.666;23.324;2023-08-07T08:46:07;3.00;;;1.65;;
79460;SDS011;68929;42.666;23.324;2023-08-07T08:48:39;1.77;;;1.58;;
79460;SDS011;68929;42.666;23.324;2023-08-07T08:51:06;1.52;;;1.42;;
79460;SDS011;68929;42.666;23.324;2023-08-07T08:53:46;2.53;;;1.75;;
79460;SDS011;68929;42.666;23.324;2023-08-07T08:56:18;2.97;;;1.77;;
79460;SDS011;68929;42.666;23.324;2023-08-07T08:58:52;2.70;;;1.70;;
79460;SDS011;68929;42.666;23.324;2023-08-07T09:01:18;2.10;;;1.90;;
79460;SDS011;68929;42.666;23.324;2023-08-07T09:03:44;3.20;;;1.70;;
79460;SDS011;68929;42.666;23.324;2023-08-07T09:06:11;2.38;;;1.63;;
79460;SDS011;68929;42.666;23.324;2023-08-07T09:08:38;2.15;;;1.67;;
79460;SDS011;68929;42.666;23.324;2023-08-07T09:11:07;2.65;;;1.80;;
79460;SDS011;68929;42.666;23.324;2023-08-07T09:13:33;2.65;;;1.60;;
79460;SDS011;68929;42.666;23.324;2023-08-07T09:16:01;4.05;;;1.77;;
79460;SDS011;68929;42.666;23.324;2023-08-07T09:18:28;4.28;;;1.63;;
79460;SDS011;68929;42.666;23.324;2023-08-07T09:20:53;1.48;;;1.38;;
79460;SDS011;68929;42.666;23.324;2023-08-07T09:23:19;1.95;;;1.85;;
79460;SDS011;68929;42.666;23.324;2023-08-07T09:25:49;1.70;;;1.60;;
79460;SDS011;68929;42.666;23.324;2023-08-07T09:28:24;2.45;;;1.73;;
79460;SDS011;68929;42.666;23.324;2023-08-07T09:30:51;1.50;;;1.40;;
79460;SDS011;68929;42.666;23.324;2023-08-07T09:33:27;1.90;;;1.63;;
79460;SDS011;68929;42.666;23.324;2023-08-07T09:35:57;1.73;;;1.48;;
79460;SDS011;68929;42.666;23.324;2023-08-07T09:38:24;2.07;;;1.87;;
79460;SDS011;68929;42.666;23.324;2023-08-07T09:40:52;4.65;;;2.00;;
79460;SDS011;68929;42.666;23.324;2023-08-07T09:43:21;2.85;;;1.70;;
79460;SDS011;68929;42.666;23.324;2023-08-07T09:45:50;4.60;;;1.83;;
79460;SDS011;68929;42.666;23.324;2023-08-07T09:48:23;1.70;;;1.60;;
79460;SDS011;68929;42.666;23.324;2023-08-07T09:50:53;1.80;;;1.70;;
79460;SDS011;68929;42.666;23.324;2023-08-07T09:53:24;2.25;;;2.00;;
79460;SDS011;68929;42.666;23.324;2023-08-07T09:55:52;1.80;;;1.67;;
79460;SDS011;68929;42.666;23.324;2023-08-07T09:58:23;2.00;;;1.50;;
79460;SDS011;68929;42.666;23.324;2023-08-07T10:00:50;1.80;;;1.70;;
79460;SDS011;68929;42.666;23.324;2023-08-07T10:03:18;1.70;;;1.60;;
79460;SDS011;68929;42.666;23.324;2023-08-07T10:05:46;3.03;;;1.45;;
79460;SDS011;68929;42.666;23.324;2023-08-07T10:08:12;2.20;;;1.77;;
79460;SDS011;68929;42.666;23.324;2023-08-07T10:10:40;3.17;;;1.80;;
79460;SDS011;68929;42.666;23.324;2023-08-07T10:13:05;2.80;;;2.00;;
79460;SDS011;68929;42.666;23.324;2023-08-07T10:15:32;4.45;;;1.60;;
79460;SDS011;68929;42.666;23.324;2023-08-07T10:17:59;2.33;;;1.67;;
79460;SDS011;68929;42.666;23.324;2023-08-07T10:20:26;2.15;;;1.33;;
79460;SDS011;68929;42.666;23.324;2023-08-07T10:23:00;1.60;;;1.50;;
79460;SDS011;68929;42.666;23.324;2023-08-07T10:25:29;1.63;;;1.52;;
79460;SDS011;68929;42.666;23.324;2023-08-07T10:27:56;2.03;;;1.50;;
79460;SDS011;68929;42.666;23.324;2023-08-07T10:30:28;1.50;;;1.40;;
79460;SDS011;68929;42.666;23.324;2023-08-07T10:32:55;2.50;;;1.65;;
79460;SDS011;68929;42.666;23.324;2023-08-07T10:35:36;1.50;;;1.40;;
79460;SDS011;68929;42.666;23.324;2023-08-07T10:38:05;1.48;;;1.38;;
79460;SDS011;68929;42.666;23.324;2023-08-07T10:40:57;2.90;;;1.60;;
79460;SDS011;68929;42.666;23.324;2023-08-07T10:43:37;1.58;;;1.48;;
79460;SDS011;68929;42.666;23.324;2023-08-07T10:46:21;2.83;;;1.65;;
79460;SDS011;68929;42.666;23.324;2023-08-07T10:48:48;1.70;;;1.60;;
79460;SDS011;68929;42.666;23.324;2023-08-07T10:51:27;2.22;;;1.60;;
79460;SDS011;68929;42.666;23.324;2023-08-07T10:53:56;2.65;;;1.30;;
79460;SDS011;68929;42.666;23.324;2023-08-07T10:56:34;2.53;;;1.50;;
79460;SDS011;68929;42.666;23.324;2023-08-07T11:04:06;4.77;;;1.50;;
79460;SDS011;68929;42.666;23.324;2023-08-07T11:06:33;1.40;;;1.30;;
79460;SDS011;68929;42.666;23.324;2023-08-07T11:09:00;1.77;;;1.67;;
79460;SDS011;68929;42.666;23.324;2023-08-07T11:11:34;1.77;;;1.50;;
79460;SDS011;68929;42.666;23.324;2023-08-07T11:14:05;3.45;;;1.48;;
79460;SDS011;68929;42.666;23.324;2023-08-07T11:16:32;1.50;;;1.40;;
79460;SDS011;68929;42.666;23.324;2023-08-07T11:18:58;1.50;;;1.40;;
79460;SDS011;68929;42.666;23.324;2023-08-07T11:21:25;1.88;;;1.45;;
79460;SDS011;68929;42.666;23.324;2023-08-07T11:23:50;1.65;;;1.40;;
79460;SDS011;68929;42.666;23.324;2023-08-07T11:26:16;1.52;;;1.40;;
79460;SDS011;68929;42.666;23.324;2023-08-07T11:28:48;1.60;;;1.50;;
79460;SDS011;68929;42.666;23.324;2023-08-07T11:31:21;2.08;;;1.75;;
79460;SDS011;68929;42.666;23.324;2023-08-07T11:33:52;4.22;;;1.60;;
79460;SDS011;68929;42.666;23.324;2023-08-07T11:36:19;3.00;;;1.48;;
79460;SDS011;68929;42.666;23.324;2023-08-07T11:38:45;6.47;;;1.80;;
79460;SDS011;68929;42.666;23.324;2023-08-07T11:41:11;2.00;;;1.50;;
79460;SDS011;68929;42.666;23.324;2023-08-07T11:43:38;2.08;;;1.73;;
79460;SDS011;68929;42.666;23.324;2023-08-07T11:46:04;3.35;;;1.55;;
79460;SDS011;68929;42.666;23.324;2023-08-07T11:48:32;2.15;;;1.40;;
79460;SDS011;68929;42.666;23.324;2023-08-07T11:50:59;3.00;;;1.50;;
79460;SDS011;68929;42.666;23.324;2023-08-07T11:53:25;1.67;;;1.40;;
79460;SDS011;68929;42.666;23.324;2023-08-07T11:55:53;2.88;;;1.67;;
79460;SDS011;68929;42.666;23.324;2023-08-07T11:58:26;1.58;;;1.45;;
79460;SDS011;68929;42.666;23.324;2023-08-07T12:01:13;1.83;;;1.67;;
79460;SDS011;68929;42.666;23.324;2023-08-07T12:03:42;2.15;;;1.35;;
79460;SDS011;68929;42.666;23.324;2023-08-07T12:06:15;3.10;;;1.45;;
79460;SDS011;68929;42.666;23.324;2023-08-07T12:08:41;1.48;;;1.38;;
79460;SDS011;68929;42.666;23.324;2023-08-07T12:11:08;1.70;;;1.60;;
79460;SDS011;68929;42.666;23.324;2023-08-07T12:13:38;2.30;;;1.50;;
79460;SDS011;68929;42.666;23.324;2023-08-07T12:16:08;4.72;;;1.67;;
79460;SDS011;68929;42.666;23.324;2023-08-07T12:18:34;1.70;;;1.60;;
79460;SDS011;68929;42.666;23.324;2023-08-07T12:21:04;1.70;;;1.60;;
79460;SDS011;68929;42.666;23.324;2023-08-07T12:23:35;3.70;;;1.45;;
79460;SDS011;68929;42.666;23.324;2023-08-07T12:26:01;1.60;;;1.50;;
79460;SDS011;68929;42.666;23.324;2023-08-07T12:28:27;3.70;;;1.58;;
79460;SDS011;68929;42.666;23.324;2023-08-07T12:30:53;1.83;;;1.60;;
79460;SDS011;68929;42.666;23.324;2023-08-07T12:33:18;3.50;;;1.45;;
79460;SDS011;68929;42.666;23.324;2023-08-07T12:35:44;5.45;;;1.60;;
79460;SDS011;68929;42.666;23.324;2023-08-07T12:38:14;1.88;;;1.52;;
79460;SDS011;68929;42.666;23.324;2023-08-07T12:40:40;2.42;;;2.00;;
79460;SDS011;68929;42.666;23.324;2023-08-07T12:43:14;2.85;;;1.60;;
79460;SDS011;68929;42.666;23.324;2023-08-07T12:45:40;2.15;;;1.80;;
79460;SDS011;68929;42.666;23.324;2023-08-07T12:48:06;1.85;;;1.63;;
79460;SDS011;68929;42.666;23.324;2023-08-07T12:50:32;1.77;;;1.67;;
79460;SDS011;68929;42.666;23.324;2023-08-07T12:52:57;2.97;;;1.70;;
79460;SDS011;68929;42.666;23.324;2023-08-07T12:55:23;2.97;;;1.67;;
79460;SDS011;68929;42.666;23.324;2023-08-07T12:57:49;4.95;;;1.80;;
79460;SDS011;68929;42.666;23.324;2023-08-07T13:00:19;3.28;;;1.85;;
79460;SDS011;68929;42.666;23.324;2023-08-07T13:02:49;2.88;;;1.80;;
79460;SDS011;68929;42.666;23.324;2023-08-07T13:05:15;3.50;;;1.90;;
79460;SDS011;68929;42.666;23.324;2023-08-07T13:07:45;4.18;;;1.80;;
79460;SDS011;68929;42.666;23.324;2023-08-07T13:10:16;4.55;;;1.85;;
79460;SDS011;68929;42.666;23.324;2023-08-07T13:13:07;2.38;;;1.80;;
79460;SDS011;68929;42.666;23.324;2023-08-07T13:15:32;4.03;;;1.70;;
79460;SDS011;68929;42.666;23.324;2023-08-07T13:17:58;1.83;;;1.73;;
79460;SDS011;68929;42.666;23.324;2023-08-07T13:20:23;3.05;;;1.80;;
79460;SDS011;68929;42.666;23.324;2023-08-07T13:22:52;2.08;;;1.88;;
79460;SDS011;68929;42.666;23.324;2023-08-07T13:25:20;3.88;;;2.15;;
79460;SDS011;68929;42.666;23.324;2023-08-07T13:27:46;2.08;;;1.88;;
79460;SDS011;68929;42.666;23.324;2023-08-07T13:30:11;3.20;;;1.73;;
79460;SDS011;68929;42.666;23.324;2023-08-07T13:32:37;1.65;;;1.45;;
79460;SDS011;68929;42.666;23.324;2023-08-07T13:35:02;1.75;;;1.65;;
79460;SDS011;68929;42.666;23.324;2023-08-07T13:37:28;3.88;;;1.80;;
79460;SDS011;68929;42.666;23.324;2023-08-07T13:39:59;4.38;;;1.70;;
79460;SDS011;68929;42.666;23.324;2023-08-07T13:42:29;1.50;;;1.40;;
79460;SDS011;68929;42.666;23.324;2023-08-07T13:44:54;2.13;;;1.50;;
79460;SDS011;68929;42.666;23.324;2023-08-07T13:47:20;2.53;;;1.60;;
79460;SDS011;68929;42.666;23.324;2023-08-07T13:49:46;1.50;;;1.40;;
79460;SDS011;68929;42.666;23.324;2023-08-07T13:52:15;1.88;;;1.70;;
79460;SDS011;68929;42.666;23.324;2023-08-07T13:54:40;2.45;;;1.75;;
79460;SDS011;68929;42.666;23.324;2023-08-07T13:57:10;4.63;;;1.60;;
79460;SDS011;68929;42.666;23.324;2023-08-07T13:59:39;1.92;;;1.75;;
79460;SDS011;68929;42.666;23.324;2023-08-07T14:02:04;1.65;;;1.50;;
79460;SDS011;68929;42.666;23.324;2023-08-07T14:04:30;3.70;;;1.80;;
79460;SDS011;68929;42.666;23.324;2023-08-07T14:06:55;4.75;;;1.85;;
79460;SDS011;68929;42.666;23.324;2023-08-07T14:09:20;1.90;;;1.80;;
79460;SDS011;68929;42.666;23.324;2023-08-07T14:11:47;3.90;;;1.80;;
79460;SDS011;68929;42.666;23.324;2023-08-07T14:14:13;2.15;;;1.80;;
79460;SDS011;68929;42.666;23.324;2023-08-07T14:16:46;3.80;;;2.03;;
79460;SDS011;68929;42.666;23.324;2023-08-07T14:19:16;2.42;;;1.77;;
79460;SDS011;68929;42.666;23.324;2023-08-07T14:21:43;2.42;;;1.88;;
79460;SDS011;68929;42.666;23.324;2023-08-07T14:24:08;2.25;;;1.95;;
79460;SDS011;68929;42.666;23.324;2023-08-07T14:26:33;5.85;;;2.00;;
79460;SDS011;68929;42.666;23.324;2023-08-07T14:29:00;2.35;;;1.90;;
79460;SDS011;68929;42.666;23.324;2023-08-07T14:31:25;2.30;;;2.10;;
79460;SDS011;68929;42.666;23.324;2023-08-07T14:33:58;2.20;;;1.77;;
79460;SDS011;68929;42.666;23.324;2023-08-07T14:36:23;1.80;;;1.70;;
79460;SDS011;68929;42.666;23.324;2023-08-07T14:38:48;3.63;;;2.28;;
79460;SDS011;68929;42.666;23.324;2023-08-07T14:41:14;2.55;;;2.00;;
79460;SDS011;68929;42.666;23.324;2023-08-07T14:43:39;3.97;;;2.25;;
79460;SDS011;68929;42.666;23.324;2023-08-07T14:46:05;3.78;;;1.98;;